sensor_id;sensor_type;location;lat;lon;timestamp;P1;durP1;ratioP1;P2;durP2;ratioP2
68432;SDS011;55412;51.350;17.056;2022-11-20T00:01:08;21.88;;;7.53;;
68432;SDS011;55412;51.350;17.056;2022-11-20T00:03:40;25.48;;;8.35;;
68432;SDS011;55412;51.350;17.056;2022-11-20T00:06:08;21.85;;;8.13;;
68432;SDS011;55412;51.350;17.056;2022-11-20T00:08:37;23.48;;;9.35;;
68432;SDS011;55412;51.350;17.056;2022-11-20T00:11:07;22.90;;;8.73;;
68432;SDS011;55412;51.350;17.056;2022-11-20T00:13:36;19.67;;;7.10;;
68432;SDS011;55412;51.350;17.056;2022-11-20T00:16:02;22.73;;;7.82;;
68432;SDS011;55412;51.350;17.056;2022-11-20T00:18:31;25.92;;;8.13;;
68432;SDS011;55412;51.350;17.056;2022-11-20T00:21:02;20.08;;;7.05;;
68432;SDS011;55412;51.350;17.056;2022-11-20T00:23:35;23.77;;;8.70;;
68432;SDS011;55412;51.350;17.056;2022-11-20T00:26:06;21.20;;;7.13;;
68432;SDS011;55412;51.350;17.056;2022-11-20T00:28:35;24.58;;;7.13;;
68432;SDS011;55412;51.350;17.056;2022-11-20T00:33:33;19.00;;;7.63;;
68432;SDS011;55412;51.350;17.056;2022-11-20T00:36:03;23.43;;;7.60;;
68432;SDS011;55412;51.350;17.056;2022-11-20T00:38:33;21.90;;;7.28;;
68432;SDS011;55412;51.350;17.056;2022-11-20T00:41:00;20.25;;;7.00;;
68432;SDS011;55412;51.350;17.056;2022-11-20T00:43:29;21.15;;;6.53;;
68432;SDS011;55412;51.350;17.056;2022-11-20T00:46:02;8.52;;;3.17;;
68432;SDS011;55412;51.350;17.056;2022-11-20T00:48:34;19.03;;;5.77;;
68432;SDS011;55412;51.350;17.056;2022-11-20T00:51:00;19.83;;;6.47;;
68432;SDS011;55412;51.350;17.056;2022-11-20T00:53:27;17.13;;;6.22;;
68432;SDS011;55412;51.350;17.056;2022-11-20T00:55:57;11.52;;;4.88;;
68432;SDS011;55412;51.350;17.056;2022-11-20T00:58:28;17.20;;;5.40;;
68432;SDS011;55412;51.350;17.056;2022-11-20T01:01:07;17.97;;;5.80;;
68432;SDS011;55412;51.350;17.056;2022-11-20T01:03:47;11.07;;;4.13;;
68432;SDS011;55412;51.350;17.056;2022-11-20T01:06:19;7.47;;;3.95;;
68432;SDS011;55412;51.350;17.056;2022-11-20T01:08:49;17.20;;;4.10;;
68432;SDS011;55412;51.350;17.056;2022-11-20T01:11:24;18.13;;;6.15;;
68432;SDS011;55412;51.350;17.056;2022-11-20T01:13:53;9.87;;;3.43;;
68432;SDS011;55412;51.350;17.056;2022-11-20T01:16:31;10.27;;;4.03;;
68432;SDS011;55412;51.350;17.056;2022-11-20T01:19:03;15.02;;;3.70;;
68432;SDS011;55412;51.350;17.056;2022-11-20T01:21:35;7.90;;;2.85;;
68432;SDS011;55412;51.350;17.056;2022-11-20T01:24:06;12.60;;;2.83;;
68432;SDS011;55412;51.350;17.056;2022-11-20T01:26:36;11.87;;;3.90;;
68432;SDS011;55412;51.350;17.056;2022-11-20T01:29:05;14.52;;;4.72;;
68432;SDS011;55412;51.350;17.056;2022-11-20T01:31:40;20.48;;;7.03;;
68432;SDS011;55412;51.350;17.056;2022-11-20T01:34:09;18.20;;;7.40;;
68432;SDS011;55412;51.350;17.056;2022-11-20T01:36:38;15.30;;;5.47;;
68432;SDS011;55412;51.350;17.056;2022-11-20T01:39:12;14.43;;;4.40;;
68432;SDS011;55412;51.350;17.056;2022-11-20T01:41:42;21.83;;;6.07;;
68432;SDS011;55412;51.350;17.056;2022-11-20T01:50:17;11.05;;;4.97;;
68432;SDS011;55412;51.350;17.056;2022-11-20T01:52:58;10.03;;;5.33;;
68432;SDS011;55412;51.350;17.056;2022-11-20T01:55:35;10.27;;;4.43;;
68432;SDS011;55412;51.350;17.056;2022-11-20T01:58:05;17.98;;;5.07;;
68432;SDS011;55412;51.350;17.056;2022-11-20T02:00:31;10.27;;;3.75;;
68432;SDS011;55412;51.350;17.056;2022-11-20T02:02:58;17.98;;;6.47;;
68432;SDS011;55412;51.350;17.056;2022-11-20T02:05:46;21.40;;;7.43;;
68432;SDS011;55412;51.350;17.056;2022-11-20T02:08:23;6.47;;;3.42;;
68432;SDS011;55412;51.350;17.056;2022-11-20T02:10:49;23.58;;;7.13;;
68432;SDS011;55412;51.350;17.056;2022-11-20T02:13:15;14.80;;;6.25;;
68432;SDS011;55412;51.350;17.056;2022-11-20T02:16:00;7.97;;;3.50;;
68432;SDS011;55412;51.350;17.056;2022-11-20T02:18:29;26.07;;;10.17;;
68432;SDS011;55412;51.350;17.056;2022-11-20T02:21:00;26.55;;;7.55;;
68432;SDS011;55412;51.350;17.056;2022-11-20T02:23:39;20.27;;;6.68;;
68432;SDS011;55412;51.350;17.056;2022-11-20T02:26:54;18.48;;;7.65;;
68432;SDS011;55412;51.350;17.056;2022-11-20T02:29:26;9.55;;;3.03;;
68432;SDS011;55412;51.350;17.056;2022-11-20T02:32:00;30.47;;;7.17;;
68432;SDS011;55412;51.350;17.056;2022-11-20T02:34:27;8.35;;;3.58;;
68432;SDS011;55412;51.350;17.056;2022-11-20T02:36:53;17.42;;;6.25;;
68432;SDS011;55412;51.350;17.056;2022-11-20T02:39:21;12.27;;;4.50;;
68432;SDS011;55412;51.350;17.056;2022-11-20T02:41:51;17.85;;;6.85;;
68432;SDS011;55412;51.350;17.056;2022-11-20T02:44:19;12.87;;;4.87;;
68432;SDS011;55412;51.350;17.056;2022-11-20T02:46:45;8.45;;;2.90;;
68432;SDS011;55412;51.350;17.056;2022-11-20T02:49:11;25.25;;;8.07;;
68432;SDS011;55412;51.350;17.056;2022-11-20T02:51:37;22.10;;;5.95;;
68432;SDS011;55412;51.350;17.056;2022-11-20T02:54:03;16.87;;;7.17;;
68432;SDS011;55412;51.350;17.056;2022-11-20T02:56:30;15.70;;;5.22;;
68432;SDS011;55412;51.350;17.056;2022-11-20T02:58:56;22.55;;;6.93;;
68432;SDS011;55412;51.350;17.056;2022-11-20T03:01:22;23.40;;;8.05;;
68432;SDS011;55412;51.350;17.056;2022-11-20T03:03:48;17.00;;;5.43;;
68432;SDS011;55412;51.350;17.056;2022-11-20T03:06:15;15.27;;;5.97;;
68432;SDS011;55412;51.350;17.056;2022-11-20T03:08:42;18.33;;;5.50;;
68432;SDS011;55412;51.350;17.056;2022-11-20T03:11:08;17.40;;;5.90;;
68432;SDS011;55412;51.350;17.056;2022-11-20T03:13:34;13.30;;;3.88;;
68432;SDS011;55412;51.350;17.056;2022-11-20T03:16:05;19.40;;;5.97;;
68432;SDS011;55412;51.350;17.056;2022-11-20T03:18:44;14.30;;;4.15;;
68432;SDS011;55412;51.350;17.056;2022-11-20T03:21:12;7.00;;;3.42;;
68432;SDS011;55412;51.350;17.056;2022-11-20T03:23:39;24.02;;;7.57;;
68432;SDS011;55412;51.350;17.056;2022-11-20T03:26:13;11.30;;;2.92;;
68432;SDS011;55412;51.350;17.056;2022-11-20T03:28:49;12.97;;;5.57;;
68432;SDS011;55412;51.350;17.056;2022-11-20T03:31:25;8.38;;;4.50;;
68432;SDS011;55412;51.350;17.056;2022-11-20T03:34:00;19.20;;;5.18;;
68432;SDS011;55412;51.350;17.056;2022-11-20T03:36:27;12.75;;;4.03;;
68432;SDS011;55412;51.350;17.056;2022-11-20T03:38:55;14.15;;;6.20;;
68432;SDS011;55412;51.350;17.056;2022-11-20T03:41:25;16.80;;;5.30;;
68432;SDS011;55412;51.350;17.056;2022-11-20T03:43:55;12.43;;;4.70;;
68432;SDS011;55412;51.350;17.056;2022-11-20T03:46:23;17.83;;;5.63;;
68432;SDS011;55412;51.350;17.056;2022-11-20T03:48:50;14.68;;;6.57;;
68432;SDS011;55412;51.350;17.056;2022-11-20T03:51:18;25.05;;;7.80;;
68432;SDS011;55412;51.350;17.056;2022-11-20T03:53:48;12.00;;;1.83;;
68432;SDS011;55412;51.350;17.056;2022-11-20T03:56:17;14.60;;;4.60;;
68432;SDS011;55412;51.350;17.056;2022-11-20T03:58:47;13.77;;;5.50;;
68432;SDS011;55412;51.350;17.056;2022-11-20T04:01:15;18.58;;;3.65;;
68432;SDS011;55412;51.350;17.056;2022-11-20T04:03:44;13.40;;;5.38;;
68432;SDS011;55412;51.350;17.056;2022-11-20T04:06:15;24.13;;;7.13;;
68432;SDS011;55412;51.350;17.056;2022-11-20T04:08:46;20.73;;;7.57;;
68432;SDS011;55412;51.350;17.056;2022-11-20T04:11:13;15.57;;;5.07;;
68432;SDS011;55412;51.350;17.056;2022-11-20T04:13:49;19.48;;;6.75;;
68432;SDS011;55412;51.350;17.056;2022-11-20T04:16:17;32.65;;;9.68;;
68432;SDS011;55412;51.350;17.056;2022-11-20T04:18:44;18.57;;;5.80;;
68432;SDS011;55412;51.350;17.056;2022-11-20T04:21:10;19.00;;;6.53;;
68432;SDS011;55412;51.350;17.056;2022-11-20T04:23:37;8.35;;;3.22;;
68432;SDS011;55412;51.350;17.056;2022-11-20T04:26:07;14.70;;;5.75;;
68432;SDS011;55412;51.350;17.056;2022-11-20T04:28:35;24.00;;;7.55;;
68432;SDS011;55412;51.350;17.056;2022-11-20T04:31:15;23.27;;;8.10;;
68432;SDS011;55412;51.350;17.056;2022-11-20T04:33:44;7.80;;;2.60;;
68432;SDS011;55412;51.350;17.056;2022-11-20T04:36:14;5.90;;;1.75;;
68432;SDS011;55412;51.350;17.056;2022-11-20T04:38:46;17.83;;;5.57;;
68432;SDS011;55412;51.350;17.056;2022-11-20T04:41:24;32.45;;;7.55;;
68432;SDS011;55412;51.350;17.056;2022-11-20T04:43:54;17.63;;;5.47;;
68432;SDS011;55412;51.350;17.056;2022-11-20T04:46:28;21.85;;;7.38;;
68432;SDS011;55412;51.350;17.056;2022-11-20T04:48:56;15.15;;;4.15;;
68432;SDS011;55412;51.350;17.056;2022-11-20T04:51:24;3.63;;;1.05;;
68432;SDS011;55412;51.350;17.056;2022-11-20T04:53:50;4.95;;;1.95;;
68432;SDS011;55412;51.350;17.056;2022-11-20T04:56:16;16.20;;;4.07;;
68432;SDS011;55412;51.350;17.056;2022-11-20T04:58:43;15.27;;;5.15;;
68432;SDS011;55412;51.350;17.056;2022-11-20T05:01:14;10.38;;;3.83;;
68432;SDS011;55412;51.350;17.056;2022-11-20T05:03:45;14.95;;;5.38;;
68432;SDS011;55412;51.350;17.056;2022-11-20T05:06:12;7.65;;;3.33;;
68432;SDS011;55412;51.350;17.056;2022-11-20T05:08:41;17.93;;;6.63;;
68432;SDS011;55412;51.350;17.056;2022-11-20T05:11:09;18.33;;;6.22;;
68432;SDS011;55412;51.350;17.056;2022-11-20T05:13:38;19.13;;;3.35;;
68432;SDS011;55412;51.350;17.056;2022-11-20T05:16:06;22.20;;;8.05;;
68432;SDS011;55412;51.350;17.056;2022-11-20T05:18:49;11.98;;;4.32;;
68432;SDS011;55412;51.350;17.056;2022-11-20T05:21:19;15.57;;;4.60;;
68432;SDS011;55412;51.350;17.056;2022-11-20T05:23:46;21.73;;;7.28;;
68432;SDS011;55412;51.350;17.056;2022-11-20T05:26:19;24.15;;;7.78;;
68432;SDS011;55412;51.350;17.056;2022-11-20T05:28:47;22.63;;;7.47;;
68432;SDS011;55412;51.350;17.056;2022-11-20T05:31:16;19.60;;;6.97;;
68432;SDS011;55412;51.350;17.056;2022-11-20T05:33:47;22.53;;;7.07;;
68432;SDS011;55412;51.350;17.056;2022-11-20T05:36:14;24.30;;;7.38;;
68432;SDS011;55412;51.350;17.056;2022-11-20T05:38:40;23.50;;;7.72;;
68432;SDS011;55412;51.350;17.056;2022-11-20T05:41:11;21.90;;;6.70;;
68432;SDS011;55412;51.350;17.056;2022-11-20T05:43:41;16.23;;;5.97;;
68432;SDS011;55412;51.350;17.056;2022-11-20T05:46:10;21.70;;;6.67;;
68432;SDS011;55412;51.350;17.056;2022-11-20T05:48:40;17.45;;;5.55;;
68432;SDS011;55412;51.350;17.056;2022-11-20T05:51:09;18.02;;;6.15;;
68432;SDS011;55412;51.350;17.056;2022-11-20T05:53:37;18.42;;;6.85;;
68432;SDS011;55412;51.350;17.056;2022-11-20T05:56:05;21.05;;;6.65;;
68432;SDS011;55412;51.350;17.056;2022-11-20T05:58:35;15.70;;;5.13;;
68432;SDS011;55412;51.350;17.056;2022-11-20T06:03:36;19.38;;;4.88;;
68432;SDS011;55412;51.350;17.056;2022-11-20T06:06:03;17.92;;;7.07;;
68432;SDS011;55412;51.350;17.056;2022-11-20T06:08:30;21.20;;;7.03;;
68432;SDS011;55412;51.350;17.056;2022-11-20T06:10:57;20.47;;;6.40;;
68432;SDS011;55412;51.350;17.056;2022-11-20T06:13:23;12.48;;;4.35;;
68432;SDS011;55412;51.350;17.056;2022-11-20T06:15:50;19.25;;;5.72;;
68432;SDS011;55412;51.350;17.056;2022-11-20T06:18:17;23.52;;;7.10;;
68432;SDS011;55412;51.350;17.056;2022-11-20T06:20:44;23.70;;;8.20;;
68432;SDS011;55412;51.350;17.056;2022-11-20T06:23:11;23.37;;;7.77;;
68432;SDS011;55412;51.350;17.056;2022-11-20T06:25:38;11.88;;;5.35;;
68432;SDS011;55412;51.350;17.056;2022-11-20T06:28:05;22.20;;;7.00;;
68432;SDS011;55412;51.350;17.056;2022-11-20T06:30:32;14.15;;;4.82;;
68432;SDS011;55412;51.350;17.056;2022-11-20T06:32:58;5.15;;;2.22;;
68432;SDS011;55412;51.350;17.056;2022-11-20T06:35:24;12.87;;;5.13;;
68432;SDS011;55412;51.350;17.056;2022-11-20T06:37:50;7.85;;;2.85;;
68432;SDS011;55412;51.350;17.056;2022-11-20T06:40:16;6.93;;;2.33;;
68432;SDS011;55412;51.350;17.056;2022-11-20T06:42:42;11.98;;;4.68;;
68432;SDS011;55412;51.350;17.056;2022-11-20T06:45:09;15.38;;;5.90;;
68432;SDS011;55412;51.350;17.056;2022-11-20T06:47:35;17.30;;;7.17;;
68432;SDS011;55412;51.350;17.056;2022-11-20T06:50:01;12.25;;;4.22;;
68432;SDS011;55412;51.350;17.056;2022-11-20T06:52:27;9.25;;;2.63;;
68432;SDS011;55412;51.350;17.056;2022-11-20T06:54:53;12.55;;;4.50;;
68432;SDS011;55412;51.350;17.056;2022-11-20T06:57:19;7.80;;;3.23;;
68432;SDS011;55412;51.350;17.056;2022-11-20T06:59:45;11.38;;;3.47;;
68432;SDS011;55412;51.350;17.056;2022-11-20T07:02:11;11.18;;;4.70;;
68432;SDS011;55412;51.350;17.056;2022-11-20T07:04:38;19.05;;;7.35;;
68432;SDS011;55412;51.350;17.056;2022-11-20T07:07:04;8.45;;;3.88;;
68432;SDS011;55412;51.350;17.056;2022-11-20T07:09:31;16.30;;;5.80;;
68432;SDS011;55412;51.350;17.056;2022-11-20T07:11:58;6.63;;;2.72;;
68432;SDS011;55412;51.350;17.056;2022-11-20T07:14:25;5.45;;;2.22;;
68432;SDS011;55412;51.350;17.056;2022-11-20T07:16:51;8.68;;;3.45;;
68432;SDS011;55412;51.350;17.056;2022-11-20T07:19:17;18.90;;;6.10;;
68432;SDS011;55412;51.350;17.056;2022-11-20T07:21:43;16.13;;;5.00;;
68432;SDS011;55412;51.350;17.056;2022-11-20T07:24:09;19.63;;;5.43;;
68432;SDS011;55412;51.350;17.056;2022-11-20T07:26:35;20.02;;;6.30;;
68432;SDS011;55412;51.350;17.056;2022-11-20T07:29:01;19.23;;;7.03;;
68432;SDS011;55412;51.350;17.056;2022-11-20T07:31:27;10.70;;;4.00;;
68432;SDS011;55412;51.350;17.056;2022-11-20T07:33:53;12.85;;;5.40;;
68432;SDS011;55412;51.350;17.056;2022-11-20T07:36:19;8.25;;;2.75;;
68432;SDS011;55412;51.350;17.056;2022-11-20T07:38:45;17.10;;;4.27;;
68432;SDS011;55412;51.350;17.056;2022-11-20T07:41:11;16.95;;;5.35;;
68432;SDS011;55412;51.350;17.056;2022-11-20T07:43:37;20.60;;;6.93;;
68432;SDS011;55412;51.350;17.056;2022-11-20T07:46:03;22.13;;;7.40;;
68432;SDS011;55412;51.350;17.056;2022-11-20T07:48:29;17.77;;;5.00;;
68432;SDS011;55412;51.350;17.056;2022-11-20T07:50:56;26.93;;;7.97;;
68432;SDS011;55412;51.350;17.056;2022-11-20T07:53:25;21.98;;;7.45;;
68432;SDS011;55412;51.350;17.056;2022-11-20T07:55:51;17.83;;;6.35;;
68432;SDS011;55412;51.350;17.056;2022-11-20T07:58:17;14.00;;;5.18;;
68432;SDS011;55412;51.350;17.056;2022-11-20T08:00:45;22.27;;;7.28;;
68432;SDS011;55412;51.350;17.056;2022-11-20T08:03:11;12.53;;;5.33;;
68432;SDS011;55412;51.350;17.056;2022-11-20T08:05:38;20.10;;;6.20;;
68432;SDS011;55412;51.350;17.056;2022-11-20T08:08:04;15.80;;;6.20;;
68432;SDS011;55412;51.350;17.056;2022-11-20T08:10:32;11.40;;;3.67;;
68432;SDS011;55412;51.350;17.056;2022-11-20T08:12:57;17.77;;;7.65;;
68432;SDS011;55412;51.350;17.056;2022-11-20T08:15:47;13.43;;;4.57;;
68432;SDS011;55412;51.350;17.056;2022-11-20T08:18:16;7.60;;;2.78;;
68432;SDS011;55412;51.350;17.056;2022-11-20T08:20:43;13.32;;;4.68;;
68432;SDS011;55412;51.350;17.056;2022-11-20T08:23:09;13.75;;;4.75;;
68432;SDS011;55412;51.350;17.056;2022-11-20T08:25:36;16.23;;;6.00;;
68432;SDS011;55412;51.350;17.056;2022-11-20T08:28:04;10.57;;;4.03;;
68432;SDS011;55412;51.350;17.056;2022-11-20T08:30:33;10.00;;;4.18;;
68432;SDS011;55412;51.350;17.056;2022-11-20T08:33:01;12.15;;;3.17;;
68432;SDS011;55412;51.350;17.056;2022-11-20T08:35:36;17.70;;;6.20;;
68432;SDS011;55412;51.350;17.056;2022-11-20T08:38:04;20.60;;;7.43;;
68432;SDS011;55412;51.350;17.056;2022-11-20T08:40:31;16.50;;;6.47;;
68432;SDS011;55412;51.350;17.056;2022-11-20T08:42:58;16.17;;;6.55;;
68432;SDS011;55412;51.350;17.056;2022-11-20T08:45:26;17.35;;;5.78;;
68432;SDS011;55412;51.350;17.056;2022-11-20T08:47:52;20.52;;;7.28;;
68432;SDS011;55412;51.350;17.056;2022-11-20T08:50:18;20.17;;;7.82;;
68432;SDS011;55412;51.350;17.056;2022-11-20T08:52:44;16.53;;;6.17;;
68432;SDS011;55412;51.350;17.056;2022-11-20T08:55:10;29.02;;;8.00;;
68432;SDS011;55412;51.350;17.056;2022-11-20T08:57:36;19.40;;;7.82;;
68432;SDS011;55412;51.350;17.056;2022-11-20T09:00:04;18.15;;;7.45;;
68432;SDS011;55412;51.350;17.056;2022-11-20T09:02:32;21.48;;;8.30;;
68432;SDS011;55412;51.350;17.056;2022-11-20T09:04:59;17.70;;;7.70;;
68432;SDS011;55412;51.350;17.056;2022-11-20T09:07:27;22.58;;;7.45;;
68432;SDS011;55412;51.350;17.056;2022-11-20T09:09:54;16.25;;;6.15;;
68432;SDS011;55412;51.350;17.056;2022-11-20T09:12:20;24.73;;;9.07;;
68432;SDS011;55412;51.350;17.056;2022-11-20T09:14:46;22.30;;;8.32;;
68432;SDS011;55412;51.350;17.056;2022-11-20T09:17:12;13.47;;;5.87;;
68432;SDS011;55412;51.350;17.056;2022-11-20T09:19:40;23.92;;;8.55;;
68432;SDS011;55412;51.350;17.056;2022-11-20T09:22:06;17.77;;;6.70;;
68432;SDS011;55412;51.350;17.056;2022-11-20T09:24:33;24.02;;;9.05;;
68432;SDS011;55412;51.350;17.056;2022-11-20T09:27:01;15.55;;;6.40;;
68432;SDS011;55412;51.350;17.056;2022-11-20T09:29:29;13.63;;;5.63;;
68432;SDS011;55412;51.350;17.056;2022-11-20T09:31:55;22.77;;;8.35;;
68432;SDS011;55412;51.350;17.056;2022-11-20T09:34:22;19.67;;;8.35;;
68432;SDS011;55412;51.350;17.056;2022-11-20T09:36:48;22.08;;;6.63;;
68432;SDS011;55412;51.350;17.056;2022-11-20T09:39:14;27.88;;;9.10;;
68432;SDS011;55412;51.350;17.056;2022-11-20T09:47:32;21.30;;;6.70;;
68432;SDS011;55412;51.350;17.056;2022-11-20T09:56:21;17.77;;;7.70;;
68432;SDS011;55412;51.350;17.056;2022-11-20T09:58:52;27.20;;;9.52;;
68432;SDS011;55412;51.350;17.056;2022-11-20T10:01:26;22.42;;;8.68;;
68432;SDS011;55412;51.350;17.056;2022-11-20T10:04:04;21.23;;;8.07;;
68432;SDS011;55412;51.350;17.056;2022-11-20T10:06:41;23.75;;;8.05;;
68432;SDS011;55412;51.350;17.056;2022-11-20T10:09:24;23.23;;;8.87;;
68432;SDS011;55412;51.350;17.056;2022-11-20T10:14:40;21.27;;;8.43;;
68432;SDS011;55412;51.350;17.056;2022-11-20T10:20:20;18.23;;;6.45;;
68432;SDS011;55412;51.350;17.056;2022-11-20T10:25:39;24.85;;;9.35;;
68432;SDS011;55412;51.350;17.056;2022-11-20T10:28:46;25.75;;;9.82;;
68432;SDS011;55412;51.350;17.056;2022-11-20T10:31:28;21.02;;;7.95;;
68432;SDS011;55412;51.350;17.056;2022-11-20T10:34:06;21.63;;;8.07;;
68432;SDS011;55412;51.350;17.056;2022-11-20T10:36:42;19.83;;;7.50;;
68432;SDS011;55412;51.350;17.056;2022-11-20T10:42:15;20.48;;;7.97;;
68432;SDS011;55412;51.350;17.056;2022-11-20T10:45:19;21.42;;;8.38;;
68432;SDS011;55412;51.350;17.056;2022-11-20T10:48:10;25.10;;;9.23;;
68432;SDS011;55412;51.350;17.056;2022-11-20T10:50:55;20.93;;;9.20;;
68432;SDS011;55412;51.350;17.056;2022-11-20T10:53:45;19.55;;;8.75;;
68432;SDS011;55412;51.350;17.056;2022-11-20T10:56:29;22.50;;;9.93;;
68432;SDS011;55412;51.350;17.056;2022-11-20T10:59:12;21.33;;;8.65;;
68432;SDS011;55412;51.350;17.056;2022-11-20T11:02:16;20.67;;;8.55;;
68432;SDS011;55412;51.350;17.056;2022-11-20T11:04:54;22.80;;;8.73;;
68432;SDS011;55412;51.350;17.056;2022-11-20T11:07:27;22.60;;;9.55;;
68432;SDS011;55412;51.350;17.056;2022-11-20T11:10:47;27.08;;;9.70;;
68432;SDS011;55412;51.350;17.056;2022-11-20T11:13:07;25.85;;;10.00;;
68432;SDS011;55412;51.350;17.056;2022-11-20T11:15:47;23.35;;;8.65;;
68432;SDS011;55412;51.350;17.056;2022-11-20T11:18:22;25.97;;;10.27;;
68432;SDS011;55412;51.350;17.056;2022-11-20T11:20:55;17.98;;;8.30;;
68432;SDS011;55412;51.350;17.056;2022-11-20T11:26:06;24.23;;;9.38;;
68432;SDS011;55412;51.350;17.056;2022-11-20T11:28:55;23.13;;;9.73;;
68432;SDS011;55412;51.350;17.056;2022-11-20T11:31:30;26.40;;;11.47;;
68432;SDS011;55412;51.350;17.056;2022-11-20T11:34:16;27.55;;;11.05;;
68432;SDS011;55412;51.350;17.056;2022-11-20T11:36:49;26.83;;;11.35;;
68432;SDS011;55412;51.350;17.056;2022-11-20T11:39:23;27.33;;;10.05;;
68432;SDS011;55412;51.350;17.056;2022-11-20T11:41:51;23.92;;;10.77;;
68432;SDS011;55412;51.350;17.056;2022-11-20T11:44:21;21.97;;;9.63;;
68432;SDS011;55412;51.350;17.056;2022-11-20T11:50:18;23.73;;;10.25;;
68432;SDS011;55412;51.350;17.056;2022-11-20T12:03:50;28.38;;;10.40;;
68432;SDS011;55412;51.350;17.056;2022-11-20T12:06:29;27.40;;;11.57;;
68432;SDS011;55412;51.350;17.056;2022-11-20T12:09:05;21.88;;;9.63;;
68432;SDS011;55412;51.350;17.056;2022-11-20T12:11:54;23.13;;;9.77;;
68432;SDS011;55412;51.350;17.056;2022-11-20T12:14:35;28.00;;;11.68;;
68432;SDS011;55412;51.350;17.056;2022-11-20T12:17:04;29.30;;;11.38;;
68432;SDS011;55412;51.350;17.056;2022-11-20T12:19:35;25.08;;;10.68;;
68432;SDS011;55412;51.350;17.056;2022-11-20T12:22:03;22.02;;;9.82;;
68432;SDS011;55412;51.350;17.056;2022-11-20T12:25:25;25.27;;;10.43;;
68432;SDS011;55412;51.350;17.056;2022-11-20T12:30:54;23.58;;;10.73;;
68432;SDS011;55412;51.350;17.056;2022-11-20T12:37:35;21.23;;;9.10;;
68432;SDS011;55412;51.350;17.056;2022-11-20T12:40:09;23.30;;;9.03;;
68432;SDS011;55412;51.350;17.056;2022-11-20T13:00:01;23.95;;;7.50;;
68432;SDS011;55412;51.350;17.056;2022-11-20T13:05:19;20.20;;;7.07;;
68432;SDS011;55412;51.350;17.056;2022-11-20T13:07:53;15.87;;;6.60;;
68432;SDS011;55412;51.350;17.056;2022-11-20T13:18:50;11.35;;;4.47;;
68432;SDS011;55412;51.350;17.056;2022-11-20T13:21:18;15.23;;;6.00;;
68432;SDS011;55412;51.350;17.056;2022-11-20T13:23:47;9.32;;;3.78;;
68432;SDS011;55412;51.350;17.056;2022-11-20T13:26:15;18.65;;;5.35;;
68432;SDS011;55412;51.350;17.056;2022-11-20T13:28:47;17.38;;;6.15;;
68432;SDS011;55412;51.350;17.056;2022-11-20T13:31:35;12.20;;;4.53;;
68432;SDS011;55412;51.350;17.056;2022-11-20T13:34:05;18.30;;;5.77;;
68432;SDS011;55412;51.350;17.056;2022-11-20T13:36:32;18.23;;;6.03;;
68432;SDS011;55412;51.350;17.056;2022-11-20T13:39:00;16.08;;;6.03;;
68432;SDS011;55412;51.350;17.056;2022-11-20T13:41:33;21.25;;;7.75;;
68432;SDS011;55412;51.350;17.056;2022-11-20T13:44:05;20.38;;;6.35;;
68432;SDS011;55412;51.350;17.056;2022-11-20T13:47:00;14.80;;;5.17;;
68432;SDS011;55412;51.350;17.056;2022-11-20T13:49:29;14.50;;;5.40;;
68432;SDS011;55412;51.350;17.056;2022-11-20T13:52:27;15.77;;;5.85;;
68432;SDS011;55412;51.350;17.056;2022-11-20T14:03:45;17.70;;;5.80;;
68432;SDS011;55412;51.350;17.056;2022-11-20T14:06:55;15.43;;;5.43;;
68432;SDS011;55412;51.350;17.056;2022-11-20T14:09:24;19.70;;;6.82;;
68432;SDS011;55412;51.350;17.056;2022-11-20T14:11:54;16.35;;;5.68;;
68432;SDS011;55412;51.350;17.056;2022-11-20T14:14:21;21.97;;;6.73;;
68432;SDS011;55412;51.350;17.056;2022-11-20T14:16:50;20.13;;;7.40;;
68432;SDS011;55412;51.350;17.056;2022-11-20T14:21:47;20.75;;;6.20;;
68432;SDS011;55412;51.350;17.056;2022-11-20T14:24:20;17.70;;;5.95;;
68432;SDS011;55412;51.350;17.056;2022-11-20T14:26:48;17.27;;;6.73;;
68432;SDS011;55412;51.350;17.056;2022-11-20T14:29:17;19.80;;;6.82;;
68432;SDS011;55412;51.350;17.056;2022-11-20T14:31:48;19.92;;;6.70;;
68432;SDS011;55412;51.350;17.056;2022-11-20T14:34:19;18.65;;;6.93;;
68432;SDS011;55412;51.350;17.056;2022-11-20T14:36:53;17.45;;;5.85;;
68432;SDS011;55412;51.350;17.056;2022-11-20T14:39:32;23.80;;;6.00;;
68432;SDS011;55412;51.350;17.056;2022-11-20T14:42:01;17.27;;;6.75;;
68432;SDS011;55412;51.350;17.056;2022-11-20T14:44:40;18.88;;;6.18;;
68432;SDS011;55412;51.350;17.056;2022-11-20T14:47:08;20.30;;;7.07;;
68432;SDS011;55412;51.350;17.056;2022-11-20T14:49:38;17.67;;;6.07;;
68432;SDS011;55412;51.350;17.056;2022-11-20T14:52:16;21.80;;;6.87;;
68432;SDS011;55412;51.350;17.056;2022-11-20T14:54:48;17.15;;;6.05;;
68432;SDS011;55412;51.350;17.056;2022-11-20T15:02:46;23.65;;;7.72;;
68432;SDS011;55412;51.350;17.056;2022-11-20T15:05:16;22.50;;;7.40;;
68432;SDS011;55412;51.350;17.056;2022-11-20T15:08:19;24.10;;;7.75;;
68432;SDS011;55412;51.350;17.056;2022-11-20T15:10:44;17.30;;;6.55;;
68432;SDS011;55412;51.350;17.056;2022-11-20T15:13:17;19.55;;;7.47;;
68432;SDS011;55412;51.350;17.056;2022-11-20T15:15:54;23.98;;;8.40;;
68432;SDS011;55412;51.350;17.056;2022-11-20T15:18:36;23.53;;;7.83;;
68432;SDS011;55412;51.350;17.056;2022-11-20T15:21:13;25.60;;;8.95;;
68432;SDS011;55412;51.350;17.056;2022-11-20T15:23:42;21.02;;;7.25;;
68432;SDS011;55412;51.350;17.056;2022-11-20T15:26:09;20.95;;;7.40;;
68432;SDS011;55412;51.350;17.056;2022-11-20T15:28:41;20.67;;;7.72;;
68432;SDS011;55412;51.350;17.056;2022-11-20T15:31:13;22.60;;;7.13;;
68432;SDS011;55412;51.350;17.056;2022-11-20T15:33:43;23.25;;;8.55;;
68432;SDS011;55412;51.350;17.056;2022-11-20T15:36:09;27.98;;;8.77;;
68432;SDS011;55412;51.350;17.056;2022-11-20T15:38:35;18.45;;;6.40;;
68432;SDS011;55412;51.350;17.056;2022-11-20T15:41:01;24.52;;;8.38;;
68432;SDS011;55412;51.350;17.056;2022-11-20T15:43:28;22.27;;;8.17;;
68432;SDS011;55412;51.350;17.056;2022-11-20T15:45:55;23.25;;;7.45;;
68432;SDS011;55412;51.350;17.056;2022-11-20T15:53:28;25.70;;;8.57;;
68432;SDS011;55412;51.350;17.056;2022-11-20T15:55:54;30.42;;;8.52;;
68432;SDS011;55412;51.350;17.056;2022-11-20T15:58:20;19.23;;;7.63;;
68432;SDS011;55412;51.350;17.056;2022-11-20T16:00:47;19.75;;;7.55;;
68432;SDS011;55412;51.350;17.056;2022-11-20T16:03:14;24.00;;;8.63;;
68432;SDS011;55412;51.350;17.056;2022-11-20T16:05:41;23.23;;;8.10;;
68432;SDS011;55412;51.350;17.056;2022-11-20T16:08:08;22.50;;;8.32;;
68432;SDS011;55412;51.350;17.056;2022-11-20T16:10:35;21.73;;;8.15;;
68432;SDS011;55412;51.350;17.056;2022-11-20T16:13:02;28.00;;;9.75;;
68432;SDS011;55412;51.350;17.056;2022-11-20T16:15:50;21.73;;;7.55;;
68432;SDS011;55412;51.350;17.056;2022-11-20T16:18:22;22.50;;;6.87;;
68432;SDS011;55412;51.350;17.056;2022-11-20T16:20:50;21.95;;;7.82;;
68432;SDS011;55412;51.350;17.056;2022-11-20T16:23:18;26.42;;;7.82;;
68432;SDS011;55412;51.350;17.056;2022-11-20T16:25:46;26.35;;;7.90;;
68432;SDS011;55412;51.350;17.056;2022-11-20T16:28:12;26.10;;;8.50;;
68432;SDS011;55412;51.350;17.056;2022-11-20T16:30:40;28.33;;;8.87;;
68432;SDS011;55412;51.350;17.056;2022-11-20T16:33:13;25.33;;;8.85;;